Albion, Arkansas
Current Conditions -  °F | °C
As of 12:56 PM on Saturday 20 Dec 2014 (Local Time) from KSRC Reporting Station
Overcast Overcast  
Wind Chill: 45°   Ceiling: 5000
Heat Index: 45°   Visibility: 10mi
Dew Point: 36°   Wind: 3mph
Humidity: 71%   Direction: 40°NE
Pressure: 30.26"   Gusts: NA
Location:  35.2662°N, 91.8491°W
Report Text: KSRC 201856Z AUTO 04003KT 10SM OVC050 07/02 A3026 RMK AO2 SLP253 T00720022 TSNO
Loading
Personal Weather Stations






























Interactive Weather Map New forecast layout! Learn more

10-Day Weather Forecast

Advertisements
Track Severe Weather on mobile